createdAt,value
2019-01-25T00:01:06.158Z,46.02
2019-01-25T00:03:34.757Z,46.61
2019-01-25T00:06:01.901Z,46.60
2019-01-25T00:08:29.081Z,46.54
2019-01-25T00:10:56.079Z,46.10
2019-01-25T00:13:23.021Z,46.60
2019-01-25T00:15:50.013Z,46.48
2019-01-25T00:18:17.269Z,46.50
2019-01-25T00:20:44.618Z,46.59
2019-01-25T00:23:11.610Z,46.56
2019-01-25T00:25:38.930Z,46.59
2019-01-25T00:28:06.311Z,45.94
2019-01-25T00:30:33.560Z,46.26
2019-01-25T00:33:00.444Z,46.56
2019-01-25T00:35:27.625Z,46.43
2019-01-25T00:37:54.518Z,46.73
2019-01-25T00:40:21.843Z,46.66
2019-01-25T00:42:49.185Z,46.45
2019-01-25T00:45:16.535Z,46.84
2019-01-25T00:47:43.445Z,46.17
2019-01-25T00:50:10.429Z,46.09
2019-01-25T00:52:37.330Z,46.50
2019-01-25T00:55:04.297Z,46.43
2019-01-25T00:57:31.266Z,46.79
2019-01-25T00:59:58.170Z,46.61
2019-01-25T01:02:25.084Z,46.87
2019-01-25T01:04:52.429Z,47.13
2019-01-25T01:07:19.381Z,46.82
2019-01-25T01:09:46.350Z,46.79
2019-01-25T01:12:13.244Z,46.72
2019-01-25T01:14:40.394Z,46.44
2019-01-25T01:17:07.618Z,46.38
2019-01-25T01:19:34.873Z,46.23
2019-01-25T01:22:02.093Z,46.63
2019-01-25T01:24:29.245Z,46.64
2019-01-25T01:26:56.485Z,46.78
2019-01-25T01:29:23.376Z,46.82
2019-01-25T01:31:50.305Z,46.70
2019-01-25T01:34:17.263Z,46.10
2019-01-25T01:36:44.230Z,46.02
2019-01-25T01:39:11.178Z,45.89
2019-01-25T01:41:38.143Z,46.37
2019-01-25T01:44:05.083Z,45.87
2019-01-25T01:46:31.981Z,46.54
2019-01-25T01:48:59.201Z,46.49
2019-01-25T01:51:26.178Z,46.77
2019-01-25T01:53:53.365Z,46.70
2019-01-25T01:56:20.939Z,46.19
2019-01-25T01:58:48.142Z,46.19
2019-01-25T02:01:15.366Z,46.13
2019-01-25T02:03:42.242Z,46.46
2019-01-25T02:06:09.538Z,46.50
2019-01-25T02:08:36.804Z,46.90
2019-01-25T02:11:04.048Z,46.75
2019-01-25T02:13:31.007Z,46.66
2019-01-25T02:15:58.334Z,46.75
2019-01-25T02:18:25.686Z,46.12
2019-01-25T02:20:52.629Z,46.21
2019-01-25T02:23:19.824Z,46.27
2019-01-25T02:25:47.010Z,46.44
2019-01-25T02:28:13.902Z,46.55
2019-01-25T02:30:41.097Z,46.62
2019-01-25T02:33:07.994Z,46.14
2019-01-25T02:35:35.162Z,46.00
2019-01-25T02:38:02.125Z,46.24
2019-01-25T02:40:29.002Z,46.68
2019-01-25T02:42:55.950Z,46.08
2019-01-25T02:45:22.913Z,46.32
2019-01-25T02:47:49.880Z,46.28
2019-01-25T02:50:19.572Z,46.53
2019-01-25T02:52:46.837Z,46.94
2019-01-25T02:55:13.783Z,46.86
2019-01-25T02:57:40.769Z,46.79
2019-01-25T03:00:08.003Z,46.63
2019-01-25T03:02:35.345Z,46.74
2019-01-25T03:05:02.572Z,46.83
2019-01-25T03:07:30.700Z,46.98
2019-01-25T03:09:57.944Z,47.14
2019-01-25T03:12:24.893Z,46.58
2019-01-25T03:14:52.234Z,46.68
2019-01-25T03:17:19.204Z,46.62
2019-01-25T03:19:46.416Z,46.68
2019-01-25T03:22:13.574Z,46.55
2019-01-25T03:24:40.807Z,46.31
2019-01-25T03:27:07.768Z,46.50
2019-01-25T03:29:34.697Z,46.67
2019-01-25T03:32:01.709Z,46.73
2019-01-25T03:34:28.875Z,46.99
2019-01-25T03:36:55.750Z,46.75
2019-01-25T03:39:22.997Z,46.79
2019-01-25T03:41:49.946Z,46.70
2019-01-25T03:44:16.895Z,46.44
2019-01-25T03:46:43.760Z,46.65
2019-01-25T03:49:12.335Z,46.63
2019-01-25T03:51:39.385Z,46.19
2019-01-25T03:54:06.398Z,46.23
2019-01-25T03:56:33.634Z,46.35
2019-01-25T03:59:00.908Z,45.82
2019-01-25T04:01:27.837Z,46.28
2019-01-25T04:03:54.745Z,46.22
2019-01-25T04:06:21.794Z,46.61
2019-01-25T04:08:49.024Z,46.92
2019-01-25T04:11:16.265Z,46.95
2019-01-25T04:13:43.222Z,47.05
2019-01-25T04:16:10.094Z,46.60
2019-01-25T04:18:37.036Z,46.44
2019-01-25T04:21:04.253Z,46.69
2019-01-25T04:23:31.228Z,46.16
2019-01-25T04:25:58.234Z,46.94
2019-01-25T04:28:25.408Z,47.14
2019-01-25T04:30:52.294Z,46.50
2019-01-25T04:33:19.274Z,46.29
2019-01-25T04:35:46.539Z,46.89
2019-01-25T04:38:13.501Z,46.71
2019-01-25T04:40:40.412Z,46.89
2019-01-25T04:43:07.661Z,46.69
2019-01-25T04:45:34.677Z,46.79
2019-01-25T04:48:01.651Z,46.86
2019-01-25T04:50:28.602Z,46.50
2019-01-25T04:52:55.579Z,46.35
2019-01-25T04:55:23.126Z,46.64
2019-01-25T04:57:50.394Z,46.80
2019-01-25T05:00:17.374Z,46.53
2019-01-25T05:02:44.712Z,46.93
2019-01-25T05:05:11.960Z,47.27
2019-01-25T05:07:39.184Z,47.20
2019-01-25T05:10:06.173Z,47.36
2019-01-25T05:12:33.475Z,47.01
2019-01-25T05:15:00.441Z,47.21
2019-01-25T05:17:27.489Z,46.77
2019-01-25T05:19:54.942Z,46.75
2019-01-25T05:22:21.891Z,46.40
2019-01-25T05:24:48.832Z,46.55
2019-01-25T05:27:15.739Z,46.93
2019-01-25T05:29:42.652Z,46.72
2019-01-25T05:32:09.682Z,46.75
2019-01-25T05:34:36.760Z,46.58
2019-01-25T05:37:03.818Z,46.69
2019-01-25T05:39:30.742Z,46.68
2019-01-25T05:41:57.662Z,46.42
2019-01-25T05:44:24.726Z,46.63
2019-01-25T05:46:51.711Z,46.98
2019-01-25T05:49:19.031Z,46.80
2019-01-25T05:51:45.991Z,47.01
2019-01-25T05:54:13.194Z,47.02
2019-01-25T05:56:40.597Z,46.63
2019-01-25T05:59:07.574Z,46.91
2019-01-25T06:01:34.926Z,47.30
2019-01-25T06:04:02.184Z,47.56
2019-01-25T06:06:29.554Z,47.45
2019-01-25T06:08:57.551Z,46.70
2019-01-25T06:11:24.462Z,46.69
2019-01-25T06:13:51.436Z,46.69
2019-01-25T06:16:18.395Z,46.89
2019-01-25T06:18:45.283Z,47.24
2019-01-25T06:21:12.494Z,47.58
2019-01-25T06:23:40.673Z,46.88
2019-01-25T06:26:08.023Z,46.85
2019-01-25T06:28:35.283Z,46.18
2019-01-25T06:31:02.274Z,46.91
2019-01-25T06:33:31.807Z,47.07
2019-01-25T06:35:59.066Z,46.53
2019-01-25T06:38:26.314Z,46.78
2019-01-25T06:40:53.569Z,47.27
2019-01-25T06:43:20.832Z,46.86
2019-01-25T06:45:47.792Z,46.86
2019-01-25T06:48:14.772Z,47.16
2019-01-25T06:50:41.768Z,47.14
2019-01-25T06:53:08.775Z,47.06
2019-01-25T06:55:35.748Z,47.09
2019-01-25T06:58:02.673Z,46.98
2019-01-25T07:00:30.044Z,46.69
2019-01-25T07:02:56.991Z,46.88
2019-01-25T07:05:24.009Z,47.10
2019-01-25T07:07:53.661Z,47.31
2019-01-25T07:10:20.611Z,47.42
2019-01-25T07:12:50.575Z,47.74
2019-01-25T07:15:17.782Z,47.15
2019-01-25T07:17:44.736Z,46.86
2019-01-25T07:20:18.189Z,46.36
2019-01-25T07:22:40.692Z,46.20
2019-01-25T07:25:07.697Z,45.64
2019-01-25T07:27:35.109Z,46.71
2019-01-25T07:30:02.100Z,47.15
2019-01-25T07:32:29.272Z,46.85
2019-01-25T07:34:56.523Z,46.12
2019-01-25T07:37:23.480Z,46.76
2019-01-25T07:39:50.813Z,46.96
2019-01-25T07:42:20.857Z,46.87
2019-01-25T07:44:48.009Z,47.21
2019-01-25T07:47:14.968Z,46.85
2019-01-25T07:49:42.208Z,47.24
2019-01-25T07:52:09.163Z,46.51
2019-01-25T07:55:23.812Z,46.65
2019-01-25T07:57:06.659Z,46.43
2019-01-25T07:59:33.585Z,46.63
2019-01-25T08:02:01.024Z,46.56
2019-01-25T08:04:28.272Z,46.75
2019-01-25T08:06:55.235Z,46.78
2019-01-25T08:09:22.229Z,46.43
2019-01-25T08:11:51.545Z,46.61
2019-01-25T08:14:18.517Z,46.24
2019-01-25T08:16:45.822Z,45.43
2019-01-25T08:19:12.812Z,45.38
2019-01-25T08:21:39.796Z,45.29
2019-01-25T08:24:06.768Z,45.79
2019-01-25T08:26:33.770Z,46.10
2019-01-25T08:29:00.698Z,46.38
2019-01-25T08:31:27.736Z,45.56
2019-01-25T08:33:54.942Z,45.31
2019-01-25T08:36:22.030Z,45.10
2019-01-25T08:38:49.282Z,45.31
2019-01-25T08:41:16.292Z,44.72
2019-01-25T08:43:43.237Z,44.13
2019-01-25T08:46:10.191Z,44.45
2019-01-25T08:48:39.296Z,44.65
2019-01-25T08:51:07.549Z,44.36
2019-01-25T08:53:34.640Z,44.49
2019-01-25T08:56:01.623Z,44.79
2019-01-25T08:58:28.597Z,44.42
2019-01-25T09:00:55.541Z,43.28
2019-01-25T09:03:22.593Z,42.89
2019-01-25T09:05:50.950Z,43.60
2019-01-25T09:08:18.175Z,43.43
2019-01-25T09:10:46.548Z,42.45
2019-01-25T09:13:13.456Z,42.46
2019-01-25T09:15:40.734Z,43.01
2019-01-25T09:18:08.011Z,42.58
2019-01-25T09:20:34.879Z,42.45
2019-01-25T09:23:02.073Z,42.11
2019-01-25T09:25:29.034Z,42.30
2019-01-25T09:27:56.309Z,42.42
2019-01-25T09:30:23.526Z,42.14
2019-01-25T09:32:50.552Z,42.34
2019-01-25T09:35:17.449Z,42.13
2019-01-25T09:37:44.481Z,41.80
2019-01-25T09:40:11.732Z,41.28
2019-01-25T09:42:38.702Z,41.39
2019-01-25T09:45:05.742Z,41.81
2019-01-25T09:47:39.388Z,41.65
2019-01-25T09:50:06.421Z,42.06
2019-01-25T09:52:33.731Z,41.99
2019-01-25T09:55:00.880Z,41.89
2019-01-25T09:57:27.772Z,41.93
2019-01-25T09:59:55.098Z,43.14
2019-01-25T10:02:22.291Z,43.06
2019-01-25T10:04:49.256Z,42.70
2019-01-25T10:07:16.133Z,43.45
2019-01-25T10:09:43.135Z,42.93
2019-01-25T10:12:10.357Z,44.59
2019-01-25T10:14:37.344Z,42.32
2019-01-25T10:17:04.309Z,42.09
2019-01-25T10:19:31.168Z,43.57
2019-01-25T10:21:58.307Z,42.71
2019-01-25T10:24:25.544Z,42.89
2019-01-25T10:26:52.709Z,40.67
2019-01-25T10:29:19.971Z,41.50
2019-01-25T10:31:47.601Z,41.31
2019-01-25T10:34:14.993Z,42.25
2019-01-25T10:36:42.223Z,41.45
2019-01-25T10:39:09.462Z,40.75
2019-01-25T10:41:36.477Z,40.83
2019-01-25T10:44:03.748Z,42.01
2019-01-25T10:46:30.679Z,40.58
2019-01-25T10:48:57.601Z,40.16
2019-01-25T10:51:24.528Z,39.80
2019-01-25T10:53:51.486Z,39.33
2019-01-25T10:56:18.488Z,38.91
2019-01-25T10:58:45.767Z,40.03
2019-01-25T11:01:12.713Z,39.35
2019-01-25T11:03:39.970Z,39.89
2019-01-25T11:06:07.230Z,38.76
2019-01-25T11:08:34.583Z,39.31
2019-01-25T11:11:01.529Z,39.08
2019-01-25T11:13:28.783Z,38.04
2019-01-25T11:15:55.681Z,38.39
2019-01-25T11:18:23.136Z,39.15
2019-01-25T11:20:50.485Z,38.33
2019-01-25T11:23:17.845Z,38.72
2019-01-25T11:25:44.789Z,38.48
2019-01-25T11:28:12.071Z,39.09
2019-01-25T11:30:39.362Z,38.85
2019-01-25T11:33:06.370Z,38.33
2019-01-25T11:35:36.150Z,37.93
2019-01-25T11:38:02.221Z,38.39
2019-01-25T11:40:29.147Z,38.29
2019-01-25T11:42:56.515Z,39.59
2019-01-25T11:45:23.797Z,39.15
2019-01-25T11:47:50.825Z,39.11
2019-01-25T11:50:17.873Z,38.40
2019-01-25T11:52:46.227Z,37.88
2019-01-25T11:55:13.536Z,38.73
2019-01-25T11:57:41.220Z,37.88
2019-01-25T12:00:08.514Z,36.96
2019-01-25T12:02:35.822Z,38.00
2019-01-25T12:05:03.184Z,38.79
2019-01-25T12:07:30.275Z,38.25
2019-01-25T12:09:57.253Z,38.07
2019-01-25T12:12:24.211Z,38.41
2019-01-25T12:14:52.588Z,38.19
2019-01-25T12:17:19.600Z,38.50
2019-01-25T12:19:46.542Z,39.03
2019-01-25T12:22:13.855Z,38.27
2019-01-25T12:24:42.748Z,38.25
2019-01-25T12:27:13.219Z,37.91
2019-01-25T12:29:38.535Z,38.88
2019-01-25T12:32:05.767Z,38.07
2019-01-25T12:34:39.548Z,38.01
2019-01-25T12:37:06.533Z,37.73
2019-01-25T12:39:34.078Z,37.87
2019-01-25T12:42:01.467Z,37.56
2019-01-25T12:44:28.781Z,37.71
2019-01-25T12:46:55.843Z,37.96
2019-01-25T12:49:22.998Z,37.79
2019-01-25T12:51:49.979Z,37.09
2019-01-25T12:54:18.072Z,36.93
2019-01-25T12:56:45.025Z,37.09
2019-01-25T12:59:11.987Z,37.50
2019-01-25T13:01:40.593Z,37.25
2019-01-25T13:04:07.603Z,36.57
2019-01-25T13:06:34.605Z,36.73
2019-01-25T13:09:01.880Z,37.62
2019-01-25T13:11:30.483Z,37.65
2019-01-25T13:13:58.601Z,37.00
2019-01-25T13:16:25.891Z,36.39
2019-01-25T13:18:54.557Z,36.22
2019-01-25T13:21:21.618Z,36.03
2019-01-25T13:23:53.770Z,36.59
2019-01-25T13:26:20.712Z,36.16
2019-01-25T13:28:48.108Z,35.96
2019-01-25T13:31:15.436Z,35.23
2019-01-25T13:33:42.474Z,35.73
2019-01-25T13:36:09.469Z,35.76
2019-01-25T13:38:36.426Z,36.18
2019-01-25T13:41:03.893Z,35.63
2019-01-25T13:43:30.841Z,35.99
2019-01-25T13:45:57.841Z,36.55
2019-01-25T13:48:32.689Z,35.92
2019-01-25T13:50:59.997Z,36.01
2019-01-25T13:53:27.018Z,35.85
2019-01-25T13:55:54.073Z,36.06
2019-01-25T13:58:21.139Z,35.87
2019-01-25T14:00:48.282Z,35.38
2019-01-25T14:03:15.418Z,35.06
2019-01-25T14:05:42.437Z,35.42
2019-01-25T14:08:09.589Z,35.84
2019-01-25T14:10:36.937Z,36.10
2019-01-25T14:13:03.970Z,36.53
2019-01-25T14:15:30.969Z,36.83
2019-01-25T14:17:58.287Z,36.77
2019-01-25T14:20:27.148Z,37.03
2019-01-25T14:22:54.559Z,37.55
2019-01-25T14:25:21.874Z,38.01
2019-01-25T14:27:49.217Z,37.95
2019-01-25T14:30:19.201Z,38.07
2019-01-25T14:32:46.667Z,37.66
2019-01-25T14:35:13.621Z,37.80
2019-01-25T14:37:41.877Z,37.96
2019-01-25T14:40:09.185Z,38.29
2019-01-25T14:42:36.115Z,38.01
2019-01-25T14:45:03.464Z,38.15
2019-01-25T14:47:30.766Z,38.31
2019-01-25T14:49:57.780Z,38.52
2019-01-25T14:52:27.135Z,39.10
2019-01-25T14:54:53.887Z,38.98
2019-01-25T14:57:21.312Z,39.21
2019-01-25T14:59:48.281Z,39.14
2019-01-25T15:02:15.578Z,39.08
2019-01-25T15:04:44.093Z,39.67
2019-01-25T15:07:11.011Z,39.72
2019-01-25T15:09:38.070Z,39.56
2019-01-25T15:12:05.126Z,39.18
2019-01-25T15:14:32.502Z,39.52
2019-01-25T15:16:59.424Z,39.91
2019-01-25T15:19:29.305Z,39.95
2019-01-25T15:22:02.542Z,40.12
2019-01-25T15:24:29.495Z,39.74
2019-01-25T15:26:56.510Z,39.03
2019-01-25T15:29:23.921Z,38.69
2019-01-25T15:31:51.503Z,39.11
2019-01-25T15:34:18.428Z,38.84
2019-01-25T15:36:45.395Z,38.89
2019-01-25T15:39:14.311Z,38.59
2019-01-25T15:41:41.781Z,39.01
2019-01-25T15:44:10.533Z,39.20
2019-01-25T15:46:37.898Z,38.94
2019-01-25T15:49:05.331Z,38.67
2019-01-25T15:51:34.850Z,38.58
2019-01-25T15:54:03.851Z,38.48
2019-01-25T15:56:34.400Z,38.68
2019-01-25T15:59:00.605Z,38.86
2019-01-25T16:01:27.906Z,38.59
2019-01-25T16:03:55.433Z,39.00
2019-01-25T16:06:22.776Z,38.92
2019-01-25T16:08:49.929Z,39.24
2019-01-25T16:11:16.975Z,39.46
2019-01-25T16:13:44.035Z,39.46
2019-01-25T16:16:11.054Z,39.12
2019-01-25T16:18:38.354Z,39.14
2019-01-25T16:21:05.366Z,39.22
2019-01-25T16:23:32.306Z,39.34
2019-01-25T16:25:59.290Z,39.52
2019-01-25T16:28:35.973Z,39.59
2019-01-25T16:31:02.196Z,39.76
2019-01-25T16:33:29.655Z,39.81
2019-01-25T16:35:56.999Z,39.67
2019-01-25T16:38:24.005Z,39.68
2019-01-25T16:40:51.595Z,39.70
2019-01-25T16:43:18.459Z,40.00
2019-01-25T16:45:48.400Z,39.93
2019-01-25T16:48:16.217Z,39.85
2019-01-25T16:50:44.859Z,39.60
2019-01-25T16:53:13.783Z,39.63
2019-01-25T16:55:44.516Z,39.97
2019-01-25T16:58:17.282Z,40.15
2019-01-25T17:00:44.249Z,40.08
2019-01-25T17:03:11.322Z,40.01
2019-01-25T17:05:41.319Z,40.44
2019-01-25T17:08:08.814Z,40.33
2019-01-25T17:10:37.866Z,40.13
2019-01-25T17:13:04.506Z,40.21
2019-01-25T17:15:34.695Z,40.07
2019-01-25T17:18:03.375Z,40.21
2019-01-25T17:20:32.281Z,40.61
2019-01-25T17:23:04.873Z,40.68
2019-01-25T17:25:32.012Z,40.26
2019-01-25T17:27:59.440Z,40.60
2019-01-25T17:30:29.482Z,40.68
2019-01-25T17:32:58.057Z,41.12
2019-01-25T17:35:25.112Z,40.54
2019-01-25T17:37:52.168Z,40.06
2019-01-25T17:40:19.208Z,40.00
2019-01-25T17:42:46.646Z,39.84
2019-01-25T17:45:14.776Z,39.61
2019-01-25T17:47:42.091Z,39.48
2019-01-25T17:50:09.083Z,39.58
2019-01-25T17:52:36.104Z,39.37
2019-01-25T17:55:03.168Z,38.84
2019-01-25T17:57:32.332Z,38.67
2019-01-25T18:00:01.353Z,36.88
2019-01-25T18:02:28.770Z,36.75
2019-01-25T18:04:55.766Z,37.47
2019-01-25T18:07:22.791Z,37.90
2019-01-25T18:09:49.869Z,37.54
2019-01-25T18:12:17.024Z,37.72
2019-01-25T18:14:49.227Z,37.29
2019-01-25T18:17:13.509Z,36.77
2019-01-25T18:19:41.936Z,36.45
2019-01-25T18:22:11.628Z,36.58
2019-01-25T18:24:40.976Z,36.57
2019-01-25T18:27:09.444Z,36.25
2019-01-25T18:32:34.041Z,35.94
2019-01-25T18:46:01.227Z,36.40
2019-01-25T18:48:34.781Z,36.18
2019-01-25T18:51:02.732Z,36.12
2019-01-25T18:53:37.413Z,36.07
2019-01-25T18:56:05.807Z,39.48
2019-01-25T18:58:34.801Z,37.16
2019-01-25T19:01:02.317Z,37.11
2019-01-25T19:03:29.373Z,36.90
2019-01-25T19:05:56.441Z,36.73
2019-01-25T19:08:23.668Z,36.26
2019-01-25T19:10:57.248Z,36.40
2019-01-25T19:13:27.699Z,36.36
2019-01-25T19:15:55.665Z,36.26
2019-01-25T19:18:22.948Z,36.44
2019-01-25T19:20:50.039Z,36.18
2019-01-25T19:23:17.123Z,36.46
2019-01-25T19:25:44.103Z,36.38
2019-01-25T19:28:11.449Z,35.95
2019-01-25T19:30:48.682Z,36.08
2019-01-25T19:33:30.831Z,36.27
2019-01-25T19:36:29.109Z,36.36
2019-01-25T19:44:08.383Z,39.88
2019-01-25T19:49:26.751Z,38.80
2019-01-25T19:51:56.615Z,41.47
2019-01-25T19:54:26.619Z,44.99
2019-01-25T19:59:32.746Z,39.11
2019-01-25T20:02:09.329Z,39.77
2019-01-25T20:04:36.873Z,37.70
2019-01-25T20:07:05.795Z,40.21
2019-01-25T20:10:04.488Z,40.25
2019-01-25T20:15:01.325Z,40.82
2019-01-25T20:17:31.886Z,39.40
2019-01-25T20:20:03.495Z,39.27
2019-01-25T20:22:35.867Z,39.18
2019-01-25T20:25:02.884Z,38.17
2019-01-25T20:27:32.902Z,38.09
2019-01-25T20:30:00.513Z,37.75
2019-01-25T20:32:31.755Z,37.52
2019-01-25T20:34:59.264Z,37.70
2019-01-25T20:37:30.063Z,38.31
2019-01-25T20:42:51.338Z,37.82
2019-01-25T20:45:29.717Z,38.54
2019-01-25T20:50:39.467Z,38.12
2019-01-25T20:53:06.776Z,38.00
2019-01-25T20:55:37.734Z,38.14
2019-01-25T20:58:05.342Z,37.93
2019-01-25T21:00:32.433Z,38.04
2019-01-25T21:03:00.840Z,38.17
2019-01-25T21:05:29.905Z,37.98
2019-01-25T21:07:56.985Z,37.79
2019-01-25T21:10:24.784Z,38.20
2019-01-25T21:12:54.522Z,38.46
2019-01-25T21:15:21.497Z,38.58
2019-01-25T21:17:49.791Z,38.60
2019-01-25T21:20:16.766Z,38.37
2019-01-25T21:22:43.899Z,38.19
2019-01-25T21:25:10.897Z,37.64
2019-01-25T21:27:37.900Z,37.95
2019-01-25T21:30:04.917Z,38.01
2019-01-25T21:32:31.775Z,37.77
2019-01-25T21:34:58.703Z,37.86
2019-01-25T21:37:25.664Z,37.78
2019-01-25T21:39:53.060Z,37.94
2019-01-25T21:42:19.946Z,38.13
2019-01-25T21:44:47.201Z,38.03
2019-01-25T21:47:14.540Z,38.12
2019-01-25T21:49:41.519Z,38.48
2019-01-25T21:52:09.794Z,38.13
2019-01-25T22:08:45.203Z,38.75
2019-01-25T22:22:05.412Z,38.71
2019-01-25T22:24:32.763Z,38.66
2019-01-25T22:26:59.749Z,38.51
2019-01-25T22:32:05.110Z,38.61
2019-01-25T22:57:13.645Z,39.59
2019-01-25T22:59:41.119Z,39.26
2019-01-25T23:02:08.383Z,39.19
2019-01-25T23:08:07.834Z,39.44
2019-01-25T23:09:46.061Z,39.72
2019-01-25T23:30:30.113Z,39.58
2019-01-25T23:36:00.703Z,39.74
2019-01-25T23:41:02.276Z,39.77
2019-01-25T23:55:16.432Z,42.08
